Time;durP1;ratioP1;P1;durP2;ratioP2;P2;SDS_P1;SDS_P2;PMS_P1;PMS_P2;Temp;Humidity;BMP_temperature;BMP_pressure;BME280_temperature;BME280_humidity;BME280_pressure;Samples;Min_cycle;Max_cycle;Signal;HPM_P1;HPM_P2
2021/03/05 05:52:03;;;;;;;33.30;17.88;;;;;;;;;;5277135;22;20255;-68
2021/03/05 05:54:31;;;;;;;40.15;18.52;;;;;;;;;;5091827;28;20029;-67
2021/03/05 05:56:57;;;;;;;31.83;17.45;;;;;;;;;;5083544;28;20023;-66
2021/03/05 05:59:27;;;;;;;39.22;19.73;;;;;;;;;;5085000;28;20024;-68
2021/03/05 06:01:53;;;;;;;37.70;18.45;;;;;;;;;;5082583;28;20016;-66
2021/03/05 06:04:21;;;;;;;34.42;18.15;;;;;;;;;;5084287;28;20490;-67
2021/03/05 06:06:47;;;;;;;34.35;18.15;;;;;;;;;;5085512;28;20028;-69
2021/03/05 06:09:13;;;;;;;38.17;18.92;;;;;;;;;;5094384;28;20035;-65
2021/03/05 06:11:41;;;;;;;30.98;16.42;;;;;;;;;;5087799;28;20036;-67
2021/03/05 06:14:08;;;;;;;35.55;16.48;;;;;;;;;;5081819;28;20020;-67
2021/03/05 06:16:34;;;;;;;32.05;16.95;;;;;;;;;;5065046;28;20028;-69
2021/03/05 06:19:01;;;;;;;30.88;17.10;;;;;;;;;;5083469;28;20051;-66
2021/03/05 06:21:40;;;;;;;41.13;19.40;;;;;;;;;;5081883;28;20012;-66
2021/03/05 06:24:09;;;;;;;31.80;16.73;;;;;;;;;;5081870;28;20066;-65
2021/03/05 06:26:48;;;;;;;26.85;14.85;;;;;;;;;;5085626;28;20032;-64
2021/03/05 06:29:14;;;;;;;31.58;16.08;;;;;;;;;;5074886;28;20055;-64
2021/03/05 06:31:40;;;;;;;26.15;13.52;;;;;;;;;;5074474;28;20101;-66
2021/03/05 06:34:06;;;;;;;28.65;14.27;;;;;;;;;;5083352;28;20020;-67
2021/03/05 06:36:32;;;;;;;33.38;13.70;;;;;;;;;;5086954;28;20024;-64
2021/03/05 06:38:58;;;;;;;29.80;12.55;;;;;;;;;;5087848;28;20034;-62
2021/03/05 06:41:26;;;;;;;29.25;12.85;;;;;;;;;;5087987;28;20027;-63
2021/03/05 06:43:56;;;;;;;27.05;12.80;;;;;;;;;;5093706;28;20028;-63
2021/03/05 06:46:48;;;;;;;21.88;11.90;;;;;;;;;;5093990;28;20098;-63
2021/03/05 06:49:16;;;;;;;21.63;10.82;;;;;;;;;;4991866;28;20058;-64
2021/03/05 06:51:51;;;;;;;20.60;10.77;;;;;;;;;;4988868;28;20035;-64
2021/03/05 06:54:17;;;;;;;19.02;10.38;;;;;;;;;;4983456;28;20106;-63
2021/03/05 06:56:46;;;;;;;17.48;9.60;;;;;;;;;;4981054;28;20026;-63
2021/03/05 06:59:13;;;;;;;22.17;9.60;;;;;;;;;;4992100;28;20034;-63
2021/03/05 07:01:53;;;;;;;19.50;9.82;;;;;;;;;;4992055;28;20049;-63
2021/03/05 07:04:19;;;;;;;18.88;9.00;;;;;;;;;;4991724;28;20088;-62
2021/03/05 07:06:46;;;;;;;18.30;9.52;;;;;;;;;;4992018;28;20050;-62
2021/03/05 07:09:32;;;;;;;19.40;9.45;;;;;;;;;;4990817;28;20417;-62
2021/03/05 07:11:59;;;;;;;20.10;10.27;;;;;;;;;;4951142;29;20039;-62
2021/03/05 07:14:26;;;;;;;21.30;10.57;;;;;;;;;;4950911;29;20422;-62
2021/03/05 07:16:52;;;;;;;18.98;10.30;;;;;;;;;;4953052;28;20035;-63
2021/03/05 07:19:19;;;;;;;18.67;9.25;;;;;;;;;;4959585;28;20035;-63
2021/03/05 07:21:48;;;;;;;22.83;10.35;;;;;;;;;;4954899;28;20028;-62
2021/03/05 07:24:15;;;;;;;22.63;9.98;;;;;;;;;;4951022;29;20035;-62
2021/03/05 07:26:56;;;;;;;19.00;10.18;;;;;;;;;;5004748;28;20045;-63
2021/03/05 07:29:44;;;;;;;18.25;10.38;;;;;;;;;;5019642;28;20111;-62
2021/03/05 07:32:12;;;;;;;21.05;10.68;;;;;;;;;;5019489;28;20405;-62
2021/03/05 07:34:38;;;;;;;21.63;10.65;;;;;;;;;;5018790;28;20075;-62
2021/03/05 07:37:05;;;;;;;23.70;10.88;;;;;;;;;;5010908;28;20038;-62
2021/03/05 07:39:33;;;;;;;19.02;10.23;;;;;;;;;;5021258;28;20519;-63
2021/03/05 07:41:59;;;;;;;17.38;9.80;;;;;;;;;;5022644;28;20041;-63
2021/03/05 07:44:26;;;;;;;16.88;10.05;;;;;;;;;;5020809;28;20034;-64
2021/03/05 07:46:52;;;;;;;18.48;9.48;;;;;;;;;;5014771;28;20045;-63
2021/03/05 07:49:23;;;;;;;18.77;9.90;;;;;;;;;;5059030;28;20044;-63
2021/03/05 07:51:49;;;;;;;24.25;11.18;;;;;;;;;;5096619;28;20044;-64
2021/03/05 07:54:38;;;;;;;19.38;10.05;;;;;;;;;;5095369;28;20025;-62
2021/03/05 07:57:05;;;;;;;21.65;10.02;;;;;;;;;;5084014;28;20544;-63
2021/03/05 07:59:43;;;;;;;21.60;10.35;;;;;;;;;;5082947;28;20029;-61
2021/03/05 08:02:09;;;;;;;19.20;9.57;;;;;;;;;;5087525;28;20030;-62
2021/03/05 08:04:51;;;;;;;16.38;9.20;;;;;;;;;;5086037;28;20025;-64
2021/03/05 08:07:17;;;;;;;20.70;9.10;;;;;;;;;;5079295;28;20087;-70
2021/03/05 08:09:44;;;;;;;18.42;8.13;;;;;;;;;;5058168;28;20055;-63
2021/03/05 08:12:45;;;;;;;16.55;8.88;;;;;;;;;;5091238;28;20032;-62
2021/03/05 08:15:11;;;;;;;21.30;9.15;;;;;;;;;;5090784;28;20036;-61
2021/03/05 08:17:45;;;;;;;17.17;8.10;;;;;;;;;;5085415;28;20379;-61
2021/03/05 08:20:11;;;;;;;15.88;7.78;;;;;;;;;;5083817;28;20021;-62
2021/03/05 08:22:55;;;;;;;17.52;8.18;;;;;;;;;;5084102;28;20027;-62
2021/03/05 08:25:23;;;;;;;17.30;8.93;;;;;;;;;;5085008;28;20445;-63
2021/03/05 08:27:49;;;;;;;15.65;7.75;;;;;;;;;;5082045;28;20662;-61
2021/03/05 08:30:17;;;;;;;14.73;8.05;;;;;;;;;;5074407;28;20044;-62
2021/03/05 08:32:49;;;;;;;13.52;7.40;;;;;;;;;;5083877;28;20017;-63
2021/03/05 08:35:19;;;;;;;12.82;7.43;;;;;;;;;;5084205;28;20031;-63
2021/03/05 08:37:46;;;;;;;13.80;7.72;;;;;;;;;;5083959;28;20056;-62
2021/03/05 08:40:22;;;;;;;17.30;7.57;;;;;;;;;;5086141;28;20031;-62
2021/03/05 08:42:49;;;;;;;14.68;7.72;;;;;;;;;;5089274;28;20091;-62
2021/03/05 08:45:19;;;;;;;11.25;6.68;;;;;;;;;;5095697;28;20038;-62
2021/03/05 08:47:49;;;;;;;16.92;7.10;;;;;;;;;;5093551;28;20027;-62
2021/03/05 08:50:32;;;;;;;14.63;7.63;;;;;;;;;;5093618;28;20410;-63
2021/03/05 08:53:00;;;;;;;14.85;7.05;;;;;;;;;;5095142;28;20075;-61
2021/03/05 08:55:30;;;;;;;11.60;6.75;;;;;;;;;;5095746;28;20052;-65
2021/03/05 08:57:56;;;;;;;13.75;7.22;;;;;;;;;;5095920;28;20082;-61
2021/03/05 09:00:27;;;;;;;15.20;7.63;;;;;;;;;;5095247;28;20522;-63
2021/03/05 09:03:03;;;;;;;14.73;6.85;;;;;;;;;;5095926;28;20459;-63
2021/03/05 09:05:32;;;;;;;13.93;6.50;;;;;;;;;;5094909;28;20024;-61
2021/03/05 09:07:58;;;;;;;11.98;6.22;;;;;;;;;;5095419;28;20039;-63
2021/03/05 09:10:44;;;;;;;13.15;7.15;;;;;;;;;;5095557;28;20024;-64
2021/03/05 09:13:11;;;;;;;11.45;6.30;;;;;;;;;;5095292;28;20031;-63
2021/03/05 09:15:51;;;;;;;10.55;6.32;;;;;;;;;;5089397;28;20111;-63
2021/03/05 09:18:30;;;;;;;13.35;6.70;;;;;;;;;;5113670;28;20093;-63
2021/03/05 09:20:58;;;;;;;13.70;6.90;;;;;;;;;;5115287;28;20034;-62
2021/03/05 09:23:33;;;;;;;17.77;6.72;;;;;;;;;;5114904;28;20027;-63
2021/03/05 09:26:11;;;;;;;11.07;6.22;;;;;;;;;;5093368;28;20107;-63
2021/03/05 09:28:41;;;;;;;19.13;6.53;;;;;;;;;;5071352;28;20380;-62
2021/03/05 09:31:13;;;;;;;12.80;6.65;;;;;;;;;;5085013;28;20036;-63
2021/03/05 09:33:40;;;;;;;12.45;6.15;;;;;;;;;;5082943;28;20019;-64
2021/03/05 09:36:26;;;;;;;11.70;6.15;;;;;;;;;;5089837;28;20058;-63
2021/03/05 09:39:02;;;;;;;12.82;6.50;;;;;;;;;;5074188;28;20378;-62
2021/03/05 09:41:30;;;;;;;12.77;7.00;;;;;;;;;;5074714;28;20480;-64
2021/03/05 09:44:06;;;;;;;15.13;6.90;;;;;;;;;;5074217;28;20367;-62
2021/03/05 09:46:36;;;;;;;11.38;7.18;;;;;;;;;;5072793;28;20475;-63
2021/03/05 09:49:22;;;;;;;14.00;7.10;;;;;;;;;;5098105;28;20028;-63
2021/03/05 09:51:50;;;;;;;14.70;7.88;;;;;;;;;;5110948;28;20135;-62
2021/03/05 09:54:18;;;;;;;15.38;7.80;;;;;;;;;;5067024;28;20413;-63
2021/03/05 09:56:49;;;;;;;15.45;7.70;;;;;;;;;;5082315;28;20078;-62
2021/03/05 09:59:15;;;;;;;18.23;8.13;;;;;;;;;;5081159;28;20031;-62
2021/03/05 10:01:42;;;;;;;14.65;7.03;;;;;;;;;;5082058;28;20078;-62
2021/03/05 10:04:11;;;;;;;14.40;7.75;;;;;;;;;;5081694;28;20478;-62
2021/03/05 10:06:37;;;;;;;15.73;8.15;;;;;;;;;;5086027;28;20450;-62
2021/03/05 10:09:05;;;;;;;14.82;8.20;;;;;;;;;;5088063;28;20095;-62
2021/03/05 10:11:38;;;;;;;16.55;7.68;;;;;;;;;;5085082;28;20128;-62
2021/03/05 10:14:11;;;;;;;14.93;8.00;;;;;;;;;;5070909;28;20032;-62
2021/03/05 10:16:41;;;;;;;15.07;7.88;;;;;;;;;;5079533;28;20020;-61
2021/03/05 10:22:00;;;;;;;16.25;9.40;;;;;;;;;;5071916;28;20040;-65
2021/03/05 10:24:30;;;;;;;16.80;8.82;;;;;;;;;;5080833;28;20109;-67
2021/03/05 10:27:18;;;;;;;16.08;8.57;;;;;;;;;;5080388;28;20021;-64
2021/03/05 10:29:46;;;;;;;16.15;7.82;;;;;;;;;;5079762;28;20032;-65
2021/03/05 10:32:19;;;;;;;12.55;7.28;;;;;;;;;;5079071;28;20105;-70
2021/03/05 10:34:49;;;;;;;14.73;7.22;;;;;;;;;;5072215;28;20031;-66
2021/03/05 10:37:17;;;;;;;16.10;7.18;;;;;;;;;;5077319;28;20101;-65
2021/03/05 10:39:43;;;;;;;15.07;7.68;;;;;;;;;;5083099;28;20391;-65
2021/03/05 10:42:11;;;;;;;12.40;6.65;;;;;;;;;;5081486;28;20025;-66
2021/03/05 10:44:37;;;;;;;13.88;7.03;;;;;;;;;;5080556;28;20024;-65
2021/03/05 10:47:04;;;;;;;17.00;6.90;;;;;;;;;;5081163;28;20063;-65
2021/03/05 10:49:30;;;;;;;15.88;7.40;;;;;;;;;;5083411;28;20625;-65
2021/03/05 10:51:57;;;;;;;10.40;6.57;;;;;;;;;;5078082;28;20044;-66
2021/03/05 10:54:24;;;;;;;19.80;6.72;;;;;;;;;;5079562;28;20029;-66
2021/03/05 10:56:50;;;;;;;14.23;7.28;;;;;;;;;;5084134;28;20078;-64
2021/03/05 10:59:18;;;;;;;16.00;7.70;;;;;;;;;;5081724;28;20024;-66
2021/03/05 11:01:45;;;;;;;15.73;6.88;;;;;;;;;;5083076;28;20409;-66
2021/03/05 11:04:11;;;;;;;15.38;6.80;;;;;;;;;;5081718;28;20021;-67
2021/03/05 11:06:37;;;;;;;15.48;6.90;;;;;;;;;;5083479;28;20029;-65
2021/03/05 11:09:05;;;;;;;13.90;7.32;;;;;;;;;;5081180;28;20040;-65
2021/03/05 11:11:32;;;;;;;13.80;7.10;;;;;;;;;;5089810;28;20348;-68
2021/03/05 11:14:13;;;;;;;24.20;7.95;;;;;;;;;;5079823;28;20016;-65
2021/03/05 11:16:39;;;;;;;12.40;7.10;;;;;;;;;;5076082;28;20032;-67
2021/03/05 11:19:10;;;;;;;16.05;7.57;;;;;;;;;;5076323;28;20372;-64
2021/03/05 11:21:36;;;;;;;18.45;7.55;;;;;;;;;;5075298;28;20028;-64
2021/03/05 11:24:03;;;;;;;16.13;7.93;;;;;;;;;;5076468;28;20373;-65
2021/03/05 11:26:29;;;;;;;15.27;7.95;;;;;;;;;;5076437;28;20536;-64
2021/03/05 11:28:55;;;;;;;16.70;8.80;;;;;;;;;;5076582;28;20379;-66
2021/03/05 11:31:22;;;;;;;18.90;8.68;;;;;;;;;;5079750;28;20052;-65
2021/03/05 11:33:48;;;;;;;17.42;8.25;;;;;;;;;;5077496;28;20091;-66
2021/03/05 11:36:15;;;;;;;15.07;8.40;;;;;;;;;;5076552;28;20516;-65
2021/03/05 11:38:42;;;;;;;18.20;8.85;;;;;;;;;;5084580;28;20036;-65
2021/03/05 11:41:08;;;;;;;15.80;8.27;;;;;;;;;;5077260;28;20031;-66
2021/03/05 11:43:36;;;;;;;17.67;9.05;;;;;;;;;;5081872;28;20348;-64
2021/03/05 11:46:02;;;;;;;21.17;9.13;;;;;;;;;;5076787;28;20039;-66
2021/03/05 11:48:28;;;;;;;16.60;8.52;;;;;;;;;;5079097;28;20040;-66
2021/03/05 11:50:54;;;;;;;16.35;8.27;;;;;;;;;;5091276;28;20039;-65
2021/03/05 11:53:20;;;;;;;16.27;8.68;;;;;;;;;;5080203;28;20044;-66
2021/03/05 11:55:46;;;;;;;13.93;8.50;;;;;;;;;;5078032;28;20021;-65
2021/03/05 11:58:12;;;;;;;14.85;8.38;;;;;;;;;;5076540;28;20056;-65
2021/03/05 12:00:38;;;;;;;15.35;8.15;;;;;;;;;;5058714;28;20021;-65
2021/03/05 12:03:05;;;;;;;15.32;7.60;;;;;;;;;;5082603;28;20052;-65
2021/03/05 12:05:31;;;;;;;15.25;7.65;;;;;;;;;;5096766;28;20024;-65
2021/03/05 12:07:57;;;;;;;15.02;7.63;;;;;;;;;;5096083;28;20044;-64
2021/03/05 12:10:23;;;;;;;13.68;7.50;;;;;;;;;;5096864;28;20514;-65
2021/03/05 12:12:49;;;;;;;12.55;7.38;;;;;;;;;;5095920;28;20312;-71
2021/03/05 12:15:16;;;;;;;13.75;7.78;;;;;;;;;;5078884;28;20035;-65
2021/03/05 12:17:51;;;;;;;15.38;7.57;;;;;;;;;;5076162;28;20102;-67
2021/03/05 12:20:17;;;;;;;16.48;8.35;;;;;;;;;;5076448;28;20031;-69
2021/03/05 12:22:51;;;;;;;17.55;7.68;;;;;;;;;;5081339;28;20028;-68
2021/03/05 12:25:17;;;;;;;15.57;7.32;;;;;;;;;;5084595;28;20098;-66
2021/03/05 12:27:43;;;;;;;15.80;6.78;;;;;;;;;;5083560;28;20032;-64
2021/03/05 12:30:09;;;;;;;12.57;7.15;;;;;;;;;;5085686;28;20371;-69
2021/03/05 12:32:36;;;;;;;10.20;6.40;;;;;;;;;;5067740;28;20024;-65
2021/03/05 12:35:02;;;;;;;16.73;7.05;;;;;;;;;;5079201;28;20032;-64
2021/03/05 12:37:28;;;;;;;12.57;7.70;;;;;;;;;;5084546;28;20487;-65
2021/03/05 12:39:54;;;;;;;19.25;7.95;;;;;;;;;;5078043;28;20086;-64
2021/03/05 12:42:20;;;;;;;22.40;7.75;;;;;;;;;;5083155;28;20387;-64
2021/03/05 12:44:46;;;;;;;21.60;8.18;;;;;;;;;;5083293;28;20100;-66
2021/03/05 12:47:12;;;;;;;13.23;7.65;;;;;;;;;;5078129;28;20517;-64
2021/03/05 12:49:38;;;;;;;17.50;7.65;;;;;;;;;;5085542;28;20047;-65
2021/03/05 12:52:04;;;;;;;18.17;8.38;;;;;;;;;;5082051;28;20094;-66
2021/03/05 12:54:30;;;;;;;12.40;6.82;;;;;;;;;;5072112;28;20013;-66
2021/03/05 12:56:56;;;;;;;19.70;7.72;;;;;;;;;;5080203;28;20046;-66
2021/03/05 12:59:23;;;;;;;13.32;6.78;;;;;;;;;;5096852;28;20059;-67
2021/03/05 13:01:49;;;;;;;13.65;7.43;;;;;;;;;;5086107;28;20027;-66
2021/03/05 13:04:15;;;;;;;14.38;7.35;;;;;;;;;;5084362;28;20063;-66
2021/03/05 13:06:41;;;;;;;12.23;7.30;;;;;;;;;;5082572;28;20025;-68
2021/03/05 13:09:07;;;;;;;13.68;7.60;;;;;;;;;;5081616;28;20028;-66
2021/03/05 13:11:34;;;;;;;12.70;7.25;;;;;;;;;;5081613;28;20024;-65
2021/03/05 13:14:00;;;;;;;14.23;7.20;;;;;;;;;;5081438;28;20031;-66
2021/03/05 13:16:26;;;;;;;18.77;7.93;;;;;;;;;;5086379;28;20020;-67
2021/03/05 13:18:52;;;;;;;19.25;8.63;;;;;;;;;;5085542;28;20060;-67
2021/03/05 13:21:18;;;;;;;22.33;9.38;;;;;;;;;;5100930;28;20458;-70
2021/03/05 13:23:44;;;;;;;14.38;7.88;;;;;;;;;;5082463;28;20028;-66
2021/03/05 13:26:12;;;;;;;14.02;7.75;;;;;;;;;;5074618;28;20101;-67
2021/03/05 13:28:39;;;;;;;16.02;7.65;;;;;;;;;;5083078;28;20374;-64
2021/03/05 13:31:05;;;;;;;12.98;7.43;;;;;;;;;;5084220;28;20098;-65
2021/03/05 13:33:32;;;;;;;12.27;6.55;;;;;;;;;;5094486;28;20016;-66
2021/03/05 13:35:58;;;;;;;15.52;7.05;;;;;;;;;;5090771;28;20103;-65
2021/03/05 13:38:24;;;;;;;10.38;5.85;;;;;;;;;;5083137;28;20074;-65
2021/03/05 13:40:50;;;;;;;16.15;7.10;;;;;;;;;;5083185;28;20024;-67
2021/03/05 13:43:16;;;;;;;12.60;6.80;;;;;;;;;;5083443;28;20051;-67
2021/03/05 13:45:42;;;;;;;12.82;7.25;;;;;;;;;;5079273;28;20042;-65
2021/03/05 13:48:09;;;;;;;15.60;7.20;;;;;;;;;;5081621;28;20036;-68
2021/03/05 13:50:35;;;;;;;18.15;8.05;;;;;;;;;;5086176;28;20028;-66
2021/03/05 13:53:01;;;;;;;14.75;7.18;;;;;;;;;;5094760;28;20048;-66
2021/03/05 13:55:27;;;;;;;15.55;6.68;;;;;;;;;;5094354;28;20463;-67
2021/03/05 13:57:54;;;;;;;12.20;6.40;;;;;;;;;;5093423;28;20031;-66
2021/03/05 14:00:20;;;;;;;11.55;5.68;;;;;;;;;;5093300;28;20091;-66
2021/03/05 14:02:46;;;;;;;9.85;5.60;;;;;;;;;;5094438;28;20039;-67
2021/03/05 14:05:12;;;;;;;9.95;6.10;;;;;;;;;;5094747;28;20112;-66
2021/03/05 14:07:38;;;;;;;12.13;6.00;;;;;;;;;;5094187;28;20032;-65
2021/03/05 14:10:04;;;;;;;10.75;6.35;;;;;;;;;;5094304;28;20043;-65
2021/03/05 14:12:31;;;;;;;11.57;6.43;;;;;;;;;;5092321;28;20029;-66
2021/03/05 14:14:57;;;;;;;15.85;7.18;;;;;;;;;;5094301;28;20494;-66
2021/03/05 14:17:23;;;;;;;11.02;6.05;;;;;;;;;;5094738;28;20036;-65
2021/03/05 14:19:49;;;;;;;15.23;6.97;;;;;;;;;;5094660;28;20031;-67
2021/03/05 14:22:15;;;;;;;13.32;6.93;;;;;;;;;;5093785;28;20141;-67
2021/03/05 14:24:41;;;;;;;15.55;8.80;;;;;;;;;;5094221;28;20032;-65
2021/03/05 14:27:08;;;;;;;14.77;8.60;;;;;;;;;;5069668;28;20444;-67
2021/03/05 14:29:34;;;;;;;19.38;9.32;;;;;;;;;;5082780;28;20085;-66
2021/03/05 14:32:00;;;;;;;15.07;7.90;;;;;;;;;;5085050;28;20024;-68
2021/03/05 14:34:27;;;;;;;14.68;8.73;;;;;;;;;;5083896;28;20032;-66
2021/03/05 14:36:53;;;;;;;13.27;7.57;;;;;;;;;;5083501;28;20028;-67
2021/03/05 14:39:19;;;;;;;15.13;7.03;;;;;;;;;;5079838;28;20024;-67
2021/03/05 14:41:45;;;;;;;16.40;8.55;;;;;;;;;;5090717;28;20031;-66
2021/03/05 14:44:11;;;;;;;20.77;8.00;;;;;;;;;;5082664;28;20016;-67
2021/03/05 14:46:37;;;;;;;16.48;8.63;;;;;;;;;;5089250;28;20020;-65
2021/03/05 14:49:04;;;;;;;11.55;7.00;;;;;;;;;;5084878;28;20028;-65
2021/03/05 14:51:30;;;;;;;13.48;7.75;;;;;;;;;;5082852;28;20028;-66
2021/03/05 14:53:56;;;;;;;16.20;7.20;;;;;;;;;;5081182;28;20499;-66
2021/03/05 14:56:23;;;;;;;12.23;6.85;;;;;;;;;;5078519;28;20024;-66
2021/03/05 14:58:49;;;;;;;14.55;6.95;;;;;;;;;;5086780;28;20093;-66
2021/03/05 15:01:15;;;;;;;14.18;7.18;;;;;;;;;;5085215;28;20487;-67
2021/03/05 15:03:42;;;;;;;17.45;7.60;;;;;;;;;;5070879;28;20101;-66
2021/03/05 15:06:08;;;;;;;18.42;7.50;;;;;;;;;;5082995;28;20024;-64
2021/03/05 15:08:34;;;;;;;13.00;7.38;;;;;;;;;;5083179;28;20028;-65
2021/03/05 15:11:00;;;;;;;14.93;6.55;;;;;;;;;;5092987;28;20020;-66
2021/03/05 15:13:26;;;;;;;14.10;6.47;;;;;;;;;;5093202;28;20016;-64
2021/03/05 15:15:52;;;;;;;15.88;6.10;;;;;;;;;;5092631;28;20020;-63
2021/03/05 15:18:18;;;;;;;11.05;5.45;;;;;;;;;;5077928;28;20378;-65
2021/03/05 15:20:45;;;;;;;15.80;6.25;;;;;;;;;;5092933;28;20024;-66
2021/03/05 15:23:11;;;;;;;15.10;6.85;;;;;;;;;;5092938;28;20107;-64
2021/03/05 15:25:49;;;;;;;16.02;6.85;;;;;;;;;;5085372;28;20475;-65
2021/03/05 15:28:20;;;;;;;17.98;6.70;;;;;;;;;;5080283;28;20081;-66
2021/03/05 15:30:46;;;;;;;15.65;6.55;;;;;;;;;;5073623;28;20422;-64
2021/03/05 15:33:12;;;;;;;13.70;6.32;;;;;;;;;;5077111;28;20075;-64
2021/03/05 15:35:39;;;;;;;16.67;7.22;;;;;;;;;;5086920;28;20034;-64
2021/03/05 15:38:06;;;;;;;20.33;7.75;;;;;;;;;;5092640;28;20034;-64
2021/03/05 15:40:33;;;;;;;20.15;8.07;;;;;;;;;;5092485;28;20530;-65
2021/03/05 15:42:59;;;;;;;15.00;7.60;;;;;;;;;;5074488;28;20063;-64
2021/03/05 15:45:25;;;;;;;19.45;8.05;;;;;;;;;;5092877;28;20059;-66
2021/03/05 15:47:52;;;;;;;28.90;17.23;;;;;;;;;;5088671;28;20146;-65
2021/03/05 15:50:20;;;;;;;29.63;18.00;;;;;;;;;;5072463;28;20025;-65
2021/03/05 15:52:49;;;;;;;32.80;17.95;;;;;;;;;;5071908;28;20365;-64
2021/03/05 15:55:15;;;;;;;34.20;19.73;;;;;;;;;;5084984;28;20028;-67
2021/03/05 15:57:42;;;;;;;37.38;20.70;;;;;;;;;;5092768;28;20035;-63
2021/03/05 16:00:10;;;;;;;27.88;16.45;;;;;;;;;;5093098;28;20106;-66
2021/03/05 16:02:36;;;;;;;37.47;19.70;;;;;;;;;;5096042;28;20024;-64
2021/03/05 16:05:04;;;;;;;31.40;17.98;;;;;;;;;;5086708;28;20024;-64
2021/03/05 16:07:31;;;;;;;41.22;22.40;;;;;;;;;;5083779;28;20022;-65
2021/03/05 16:09:58;;;;;;;42.10;22.15;;;;;;;;;;5084370;28;20032;-64
2021/03/05 16:12:24;;;;;;;37.92;20.83;;;;;;;;;;5080416;28;20095;-65
2021/03/05 16:14:51;;;;;;;32.70;20.00;;;;;;;;;;5080284;28;20027;-63
2021/03/05 16:17:18;;;;;;;34.63;20.08;;;;;;;;;;5085747;28;20044;-65
2021/03/05 16:19:44;;;;;;;38.33;22.85;;;;;;;;;;5066217;28;20069;-66
2021/03/05 16:22:10;;;;;;;47.15;23.83;;;;;;;;;;5085018;28;20099;-63
2021/03/05 16:24:36;;;;;;;44.20;21.75;;;;;;;;;;5084135;28;20008;-65
2021/03/05 16:27:03;;;;;;;39.17;21.05;;;;;;;;;;5084372;28;20077;-64
2021/03/05 16:29:30;;;;;;;38.60;20.80;;;;;;;;;;5088567;28;20031;-63
2021/03/05 16:31:58;;;;;;;37.03;21.25;;;;;;;;;;5095859;28;20016;-63
2021/03/05 16:34:25;;;;;;;38.17;20.98;;;;;;;;;;5096186;28;20095;-63
2021/03/05 16:36:52;;;;;;;37.75;21.23;;;;;;;;;;5095519;28;20109;-64
2021/03/05 16:39:18;;;;;;;51.13;25.25;;;;;;;;;;5086372;28;20025;-64
2021/03/05 16:41:46;;;;;;;47.83;25.45;;;;;;;;;;5078563;28;20428;-64
2021/03/05 16:44:14;;;;;;;38.72;21.35;;;;;;;;;;5075209;28;20033;-63
2021/03/05 16:46:41;;;;;;;45.53;22.60;;;;;;;;;;5075313;28;20028;-64
2021/03/05 16:49:07;;;;;;;39.13;21.27;;;;;;;;;;5080788;28;20028;-65
2021/03/05 16:51:34;;;;;;;40.83;22.95;;;;;;;;;;5067963;28;20016;-65
2021/03/05 16:54:00;;;;;;;40.83;21.65;;;;;;;;;;5076137;28;20507;-65
2021/03/05 16:56:31;;;;;;;38.28;19.98;;;;;;;;;;5075693;28;20032;-66
2021/03/05 16:58:58;;;;;;;48.65;23.33;;;;;;;;;;5092308;28;20074;-65
2021/03/05 17:01:25;;;;;;;43.65;23.65;;;;;;;;;;5092264;28;20094;-65
2021/03/05 17:03:52;;;;;;;40.78;22.25;;;;;;;;;;5092088;28;20096;-64
2021/03/05 17:06:18;;;;;;;41.60;20.77;;;;;;;;;;5091394;28;20031;-65
2021/03/05 17:08:45;;;;;;;44.70;25.48;;;;;;;;;;5092242;28;20020;-64
2021/03/05 17:11:11;;;;;;;38.42;21.50;;;;;;;;;;5084237;28;20374;-64
2021/03/05 17:13:37;;;;;;;40.60;23.08;;;;;;;;;;5083512;28;20024;-65
2021/03/05 17:16:04;;;;;;;38.95;22.77;;;;;;;;;;5082710;28;20078;-65
2021/03/05 17:18:31;;;;;;;50.47;25.15;;;;;;;;;;5081761;28;20538;-63
2021/03/05 17:20:58;;;;;;;50.72;27.80;;;;;;;;;;5084012;28;20028;-66
2021/03/05 17:23:24;;;;;;;48.30;25.48;;;;;;;;;;5085264;28;20049;-63
2021/03/05 17:25:50;;;;;;;44.95;25.25;;;;;;;;;;5084386;28;20032;-64
2021/03/05 17:28:16;;;;;;;35.97;18.20;;;;;;;;;;5084582;28;20054;-63
2021/03/05 17:30:43;;;;;;;46.90;24.15;;;;;;;;;;5038066;28;20033;-65
2021/03/05 17:33:10;;;;;;;40.10;20.92;;;;;;;;;;5038623;28;20036;-66
2021/03/05 17:35:40;;;;;;;39.97;20.83;;;;;;;;;;5045538;28;20041;-66
2021/03/05 17:38:06;;;;;;;41.13;20.92;;;;;;;;;;5045723;28;20439;-66
2021/03/05 17:40:33;;;;;;;33.58;19.45;;;;;;;;;;5027252;28;20045;-66
2021/03/05 17:43:00;;;;;;;38.97;22.15;;;;;;;;;;5041324;28;20018;-67
2021/03/05 17:45:27;;;;;;;43.90;22.13;;;;;;;;;;5045198;28;20048;-67
2021/03/05 17:47:54;;;;;;;53.63;25.75;;;;;;;;;;5012682;28;20381;-68
2021/03/05 17:50:20;;;;;;;179.77;84.38;;;;;;;;;;5030979;28;20037;-67
2021/03/05 17:52:46;;;;;;;46.88;24.10;;;;;;;;;;5030710;28;20071;-68
2021/03/05 17:55:15;;;;;;;53.75;26.90;;;;;;;;;;5030973;28;20075;-69
2021/03/05 17:57:41;;;;;;;41.03;22.83;;;;;;;;;;5032059;28;20112;-68
2021/03/05 18:00:08;;;;;;;50.50;26.27;;;;;;;;;;5022329;28;20192;-67
2021/03/05 18:02:36;;;;;;;45.67;23.80;;;;;;;;;;5082898;28;20040;-67
2021/03/05 18:05:02;;;;;;;57.00;31.52;;;;;;;;;;5083193;28;20110;-68
2021/03/05 18:07:28;;;;;;;70.00;34.85;;;;;;;;;;5093419;28;20027;-67
2021/03/05 18:09:55;;;;;;;59.85;32.72;;;;;;;;;;5093648;28;20024;-66
2021/03/05 18:12:28;;;;;;;49.17;26.00;;;;;;;;;;5090025;28;20020;-67
2021/03/05 18:14:54;;;;;;;52.63;28.83;;;;;;;;;;5093518;28;20017;-65
2021/03/05 18:17:20;;;;;;;53.65;29.80;;;;;;;;;;5093570;28;20028;-66
2021/03/05 18:19:46;;;;;;;38.17;21.10;;;;;;;;;;5068611;28;20429;-68
2021/03/05 18:22:12;;;;;;;45.47;24.90;;;;;;;;;;5093548;28;20024;-66
2021/03/05 18:24:38;;;;;;;40.60;23.17;;;;;;;;;;5093010;28;20024;-66
2021/03/05 18:27:04;;;;;;;38.53;22.48;;;;;;;;;;5093703;28;20036;-65
2021/03/05 18:29:30;;;;;;;60.75;33.05;;;;;;;;;;5093634;28;20099;-67
2021/03/05 18:31:56;;;;;;;56.78;32.42;;;;;;;;;;5075810;28;20386;-66
2021/03/05 18:34:22;;;;;;;49.75;24.55;;;;;;;;;;5091883;28;20028;-69
2021/03/05 18:36:49;;;;;;;40.80;22.42;;;;;;;;;;5084265;28;20028;-66
2021/03/05 18:39:16;;;;;;;41.92;24.10;;;;;;;;;;5084224;28;20048;-68
2021/03/05 18:41:43;;;;;;;41.25;20.77;;;;;;;;;;5083207;28;20494;-67
2021/03/05 18:44:12;;;;;;;43.03;22.92;;;;;;;;;;5088263;28;20369;-67
2021/03/05 18:46:38;;;;;;;37.78;21.83;;;;;;;;;;5093093;28;20027;-65
2021/03/05 18:49:04;;;;;;;51.45;25.77;;;;;;;;;;5093420;28;20024;-65
2021/03/05 18:51:30;;;;;;;39.83;21.08;;;;;;;;;;5093571;28;20024;-65
2021/03/05 18:54:00;;;;;;;45.33;25.20;;;;;;;;;;5093890;28;20072;-68
2021/03/05 18:56:26;;;;;;;54.22;27.73;;;;;;;;;;5092748;28;20028;-69
2021/03/05 18:58:53;;;;;;;51.00;27.13;;;;;;;;;;5092488;28;20020;-66
2021/03/05 19:01:19;;;;;;;52.35;30.13;;;;;;;;;;5080240;28;20052;-67
2021/03/05 19:03:45;;;;;;;51.08;26.98;;;;;;;;;;5078233;28;20091;-66
2021/03/05 19:06:11;;;;;;;51.05;26.70;;;;;;;;;;5087652;28;20029;-66
2021/03/05 19:08:38;;;;;;;50.08;25.52;;;;;;;;;;5084973;28;20024;-66
2021/03/05 19:11:04;;;;;;;45.95;24.45;;;;;;;;;;5091413;28;20082;-65
2021/03/05 19:13:30;;;;;;;48.85;27.23;;;;;;;;;;5093099;28;20031;-67
2021/03/05 19:15:56;;;;;;;56.65;25.73;;;;;;;;;;5098222;28;20028;-66
2021/03/05 19:18:22;;;;;;;52.90;26.33;;;;;;;;;;5094666;28;20119;-66
2021/03/05 19:20:51;;;;;;;51.67;26.45;;;;;;;;;;5075397;28;20123;-66
2021/03/05 19:23:17;;;;;;;52.88;25.30;;;;;;;;;;5085183;28;20028;-66
2021/03/05 19:25:44;;;;;;;59.17;28.98;;;;;;;;;;5084542;28;20028;-66
2021/03/05 19:28:11;;;;;;;46.22;24.63;;;;;;;;;;5086377;28;20027;-68
2021/03/05 19:30:37;;;;;;;55.80;27.63;;;;;;;;;;5083336;28;20051;-66
2021/03/05 19:33:04;;;;;;;58.92;29.42;;;;;;;;;;5073456;28;20017;-67
2021/03/05 19:35:31;;;;;;;51.13;26.92;;;;;;;;;;5073908;28;20348;-67
2021/03/05 19:37:57;;;;;;;45.15;23.30;;;;;;;;;;5076432;28;20107;-69
2021/03/05 19:40:23;;;;;;;47.25;24.60;;;;;;;;;;5077165;28;20114;-67
2021/03/05 19:42:49;;;;;;;44.50;21.77;;;;;;;;;;5084433;28;20036;-67
2021/03/05 19:45:15;;;;;;;42.58;23.05;;;;;;;;;;5085734;28;20494;-65
2021/03/05 19:47:42;;;;;;;59.40;31.13;;;;;;;;;;5081228;28;20532;-69
2021/03/05 19:50:08;;;;;;;50.63;26.60;;;;;;;;;;5076015;28;20028;-67
2021/03/05 19:52:34;;;;;;;39.40;21.45;;;;;;;;;;5079366;28;20060;-67
2021/03/05 19:55:00;;;;;;;54.22;27.50;;;;;;;;;;5077991;28;20471;-67
2021/03/05 19:57:26;;;;;;;42.17;23.33;;;;;;;;;;5087093;28;20107;-66
2021/03/05 19:59:53;;;;;;;43.38;21.45;;;;;;;;;;5095679;28;20024;-69
2021/03/05 20:02:19;;;;;;;41.20;22.73;;;;;;;;;;5077586;28;20027;-69
2021/03/05 20:04:45;;;;;;;40.55;23.17;;;;;;;;;;5095940;28;20097;-66
2021/03/05 20:07:11;;;;;;;48.85;25.20;;;;;;;;;;5094691;28;20024;-68
2021/03/05 20:09:37;;;;;;;41.17;22.98;;;;;;;;;;5095952;28;20115;-67
2021/03/05 20:12:04;;;;;;;46.75;24.88;;;;;;;;;;5095380;28;20020;-68
2021/03/05 20:14:30;;;;;;;39.28;22.00;;;;;;;;;;5094585;28;20035;-64
2021/03/05 20:16:56;;;;;;;42.53;22.90;;;;;;;;;;5093906;28;20094;-65
2021/03/05 20:19:22;;;;;;;42.03;23.50;;;;;;;;;;5096092;28;20028;-66
2021/03/05 20:21:49;;;;;;;38.40;21.85;;;;;;;;;;5096083;28;20085;-68